Terminal Aerodrome Forecast
Issued by NWS

Home | Current Version | Previous Version | Text Only | Print | Product List | Glossary Off
Versions: 1 2 3 4 5 6 7 8 9 10 11 12 13 14

000
FTUS42 KMHX 240537
TAFISO
TAF
KISO 240537Z 2406/2506 00000KT P6SM SKC
     FM240900 00000KT 3SM BR SKC
     FM241200 12003KT P6SM SKC
     FM241600 15006KT P6SM SCT070
      AMD LTD TO CLD VIS AND WIND=

USA.gov is the U.S. government's official web portal to all federal, state and local government web resources and services.